Time;durP1;ratioP1;P1;durP2;ratioP2;P2;SDS_P1;SDS_P2;PMS_P1;PMS_P2;Temp;Humidity;BMP_temperature;BMP_pressure;BME280_temperature;BME280_humidity;BME280_pressure;Samples;Min_cycle;Max_cycle;Signal;HPM_P1;HPM_P2
2024/02/08 00:01:38;;;;;;;30.40;24.65;;;;;;;5.38;100.00;95820.72;5065308;28;20112;-68
2024/02/08 00:04:04;;;;;;;26.98;24.23;;;;;;;5.39;100.00;95814.56;5073022;28;20036;-68
2024/02/08 00:06:32;;;;;;;28.30;25.42;;;;;;;5.39;100.00;95813.75;5065877;28;20025;-68
2024/02/08 00:09:00;;;;;;;27.65;24.88;;;;;;;5.42;100.00;95809.16;5069653;28;20024;-67
2024/02/08 00:11:31;;;;;;;29.60;26.67;;;;;;;5.43;100.00;95808.22;5064644;28;20032;-68
2024/02/08 00:13:57;;;;;;;29.27;26.13;;;;;;;5.42;100.00;95805.69;5063490;28;20623;-68
2024/02/08 00:16:22;;;;;;;28.23;24.98;;;;;;;5.40;100.00;95800.56;5063116;28;20025;-68
2024/02/08 00:18:48;;;;;;;28.95;26.23;;;;;;;5.38;100.00;95807.69;5069722;28;20089;-68
2024/02/08 00:21:13;;;;;;;27.98;25.10;;;;;;;5.37;100.00;95803.41;5071014;28;20049;-68
2024/02/08 00:23:39;;;;;;;26.55;23.85;;;;;;;5.41;100.00;95802.22;5075684;28;20103;-68
2024/02/08 00:26:04;;;;;;;26.40;23.70;;;;;;;5.51;100.00;95791.97;5067157;28;20033;-68
2024/02/08 00:28:30;;;;;;;26.50;21.80;;;;;;;5.51;100.00;95793.78;5069720;28;20044;-68
2024/02/08 00:30:55;;;;;;;28.80;25.33;;;;;;;5.42;100.00;95790.03;5069717;28;20036;-68
2024/02/08 00:33:22;;;;;;;29.73;26.63;;;;;;;5.26;100.00;95787.66;5067474;28;20060;-68
2024/02/08 00:35:48;;;;;;;24.65;20.98;;;;;;;5.29;100.00;95780.44;5057797;28;20452;-68
2024/02/08 00:38:13;;;;;;;25.90;23.13;;;;;;;5.15;100.00;95783.19;5074777;28;20401;-67
2024/02/08 00:40:39;;;;;;;23.15;20.85;;;;;;;5.12;100.00;95776.38;5057395;28;20462;-68
2024/02/08 00:43:06;;;;;;;22.65;20.23;;;;;;;5.14;100.00;95777.13;5080544;28;20110;-68
2024/02/08 00:45:35;;;;;;;26.80;19.58;;;;;;;5.15;100.00;95770.94;5061197;28;20039;-68
2024/02/08 00:48:01;;;;;;;28.85;25.65;;;;;;;5.13;100.00;95772.84;5068854;28;20108;-67
2024/02/08 00:50:26;;;;;;;28.73;24.55;;;;;;;5.14;100.00;95778.91;5058222;28;20033;-67
2024/02/08 00:52:55;;;;;;;30.25;27.05;;;;;;;5.13;100.00;95778.06;5066975;28;20096;-68
2024/02/08 00:55:21;;;;;;;30.00;26.88;;;;;;;5.15;100.00;95767.53;5058769;28;20033;-68
2024/02/08 00:57:46;;;;;;;29.55;26.50;;;;;;;5.13;100.00;95770.22;5060063;28;20019;-68
2024/02/08 01:00:13;;;;;;;28.33;25.42;;;;;;;5.12;100.00;95773.78;5071527;28;20470;-68
2024/02/08 01:02:39;;;;;;;28.52;25.52;;;;;;;5.13;100.00;95762.41;5067269;28;20024;-68
2024/02/08 01:05:05;;;;;;;27.35;24.60;;;;;;;5.15;100.00;95770.13;5064238;28;20027;-68
2024/02/08 01:07:33;;;;;;;25.60;22.98;;;;;;;5.16;100.00;95769.19;5074753;28;20647;-68
2024/02/08 01:10:00;;;;;;;26.27;23.42;;;;;;;5.14;100.00;95760.63;5074661;28;20137;-68
2024/02/08 01:12:26;;;;;;;27.00;24.15;;;;;;;5.15;100.00;95765.72;5071593;28;20032;-68
2024/02/08 01:14:52;;;;;;;26.55;23.90;;;;;;;5.22;100.00;95760.09;5075900;28;20046;-68
2024/02/08 01:17:17;;;;;;;25.60;22.08;;;;;;;5.28;100.00;95751.84;5058296;28;20021;-68
2024/02/08 01:19:43;;;;;;;24.60;21.92;;;;;;;5.19;100.00;95757.69;5061676;28;20028;-68
2024/02/08 01:22:09;;;;;;;27.52;24.65;;;;;;;5.14;100.00;95744.97;5075980;28;20093;-68
2024/02/08 01:24:34;;;;;;;26.38;23.70;;;;;;;5.15;100.00;95757.09;5065204;28;20034;-68
2024/02/08 01:27:01;;;;;;;25.65;22.98;;;;;;;5.16;100.00;95741.28;5064013;28;20107;-68
2024/02/08 01:29:26;;;;;;;25.10;22.38;;;;;;;5.20;100.00;95738.50;5066245;28;20074;-68
2024/02/08 01:31:53;;;;;;;25.15;22.63;;;;;;;5.24;100.00;95735.53;5068624;28;20024;-68
2024/02/08 01:34:19;;;;;;;26.23;23.65;;;;;;;5.25;100.00;95739.00;5068464;28;20481;-68
2024/02/08 01:36:46;;;;;;;25.52;23.05;;;;;;;5.20;100.00;95739.31;5069038;28;20024;-68
2024/02/08 01:39:13;;;;;;;26.10;23.35;;;;;;;5.20;100.00;95741.13;5067172;28;20021;-68
2024/02/08 01:41:42;;;;;;;28.95;25.95;;;;;;;5.18;100.00;95737.75;5075156;28;20045;-69
2024/02/08 01:44:08;;;;;;;28.48;25.48;;;;;;;5.10;100.00;95728.69;5075985;28;20017;-68
2024/02/08 01:46:38;;;;;;;27.45;24.42;;;;;;;5.08;100.00;95734.94;5067611;28;20027;-68
2024/02/08 01:49:13;;;;;;;31.65;27.85;;;;;;;5.10;100.00;95739.13;5055612;28;20017;-68
2024/02/08 01:51:39;;;;;;;;;;;;;;;5.13;100.00;95744.13;5065209;28;20017;-68
2024/02/08 01:54:05;;;;;;;;;;;;;;;5.16;100.00;95730.84;5057850;28;19924;-68
2024/02/08 01:56:31;;;;;;;31.42;24.05;;;;;;;5.16;100.00;95727.44;5073154;28;19913;-68
2024/02/08 01:59:00;;;;;;;28.58;23.20;;;;;;;5.20;100.00;95728.88;5061765;28;20033;-68
2024/02/08 02:01:26;;;;;;;42.40;31.45;;;;;;;5.22;100.00;95726.19;5058617;28;20693;-68
2024/02/08 02:03:51;;;;;;;33.22;28.27;;;;;;;5.16;100.00;95725.63;5071816;28;20031;-68
2024/02/08 02:06:17;;;;;;;29.77;26.42;;;;;;;5.17;100.00;95729.09;5069182;28;20020;-68
2024/02/08 02:08:53;;;;;;;27.00;24.30;;;;;;;5.22;100.00;95726.19;5073419;28;20024;-68
2024/02/08 02:11:31;;;;;;;30.23;24.17;;;;;;;5.21;100.00;95732.34;5056988;28;20081;-68
2024/02/08 02:13:58;;;;;;;27.85;24.85;;;;;;;5.10;100.00;95738.31;5060114;28;21093;-68
2024/02/08 02:16:23;;;;;;;27.60;24.70;;;;;;;5.02;100.00;95731.81;5063901;28;20078;-68
2024/02/08 02:18:50;;;;;;;29.33;25.42;;;;;;;5.01;100.00;95716.28;5066628;28;20501;-68
2024/02/08 02:21:20;;;;;;;26.33;23.75;;;;;;;4.97;100.00;95720.88;5063145;28;20024;-68
2024/02/08 02:23:46;;;;;;;28.77;25.77;;;;;;;5.00;100.00;95723.28;5062856;28;20021;-68
2024/02/08 02:26:13;;;;;;;29.95;26.88;;;;;;;5.01;100.00;95711.06;5057042;28;20036;-68
2024/02/08 02:28:40;;;;;;;29.75;26.75;;;;;;;5.00;100.00;95707.63;5060356;28;20016;-68
2024/02/08 02:31:06;;;;;;;26.45;23.30;;;;;;;5.00;100.00;95712.03;5066604;28;20029;-68
2024/02/08 02:33:36;;;;;;;28.92;25.85;;;;;;;5.01;100.00;95711.91;5068203;28;20069;-68
2024/02/08 02:36:03;;;;;;;27.85;25.08;;;;;;;5.00;100.00;95714.63;5062627;28;20028;-67
2024/02/08 02:38:29;;;;;;;30.63;27.40;;;;;;;5.04;100.00;95702.19;5060460;28;20448;-67
2024/02/08 02:40:54;;;;;;;29.42;26.05;;;;;;;5.06;100.00;95703.75;5060299;28;20037;-68
2024/02/08 02:43:25;;;;;;;29.02;26.15;;;;;;;5.05;100.00;95699.47;5069147;28;20050;-67
2024/02/08 02:45:51;;;;;;;27.20;24.45;;;;;;;5.01;100.00;95690.19;5056290;28;20056;-68
2024/02/08 02:48:17;;;;;;;30.33;27.23;;;;;;;5.03;100.00;95688.31;5055758;28;20453;-68
2024/02/08 02:50:43;;;;;;;32.50;29.15;;;;;;;4.98;100.00;95683.41;5064469;28;20046;-68
2024/02/08 02:53:09;;;;;;;28.90;25.10;;;;;;;4.93;100.00;95675.06;5074141;28;20024;-68
2024/02/08 02:55:35;;;;;;;35.33;31.67;;;;;;;4.92;100.00;95673.41;5071774;28;20170;-68
2024/02/08 02:58:00;;;;;;;36.22;32.45;;;;;;;4.94;100.00;95670.69;5067366;28;20017;-68
2024/02/08 03:00:33;;;;;;;37.08;33.40;;;;;;;4.94;100.00;95666.31;5067165;28;20028;-68
2024/02/08 03:02:59;;;;;;;36.08;32.58;;;;;;;4.97;100.00;95662.63;5065974;28;20032;-68
2024/02/08 03:05:24;;;;;;;35.67;31.05;;;;;;;4.99;100.00;95666.81;5063282;28;20509;-68
2024/02/08 03:07:51;;;;;;;32.72;29.23;;;;;;;4.96;100.00;95666.19;5061529;28;20105;-68
2024/02/08 03:10:20;;;;;;;34.42;30.90;;;;;;;4.94;100.00;95661.09;5077729;28;20055;-68
2024/02/08 03:12:49;;;;;;;34.58;31.35;;;;;;;4.95;100.00;95659.28;5055691;28;20506;-68
2024/02/08 03:15:16;;;;;;;32.17;29.17;;;;;;;4.93;100.00;95649.00;5074182;28;20035;-67
2024/02/08 03:17:43;;;;;;;27.67;23.08;;;;;;;4.92;100.00;95654.31;5059383;28;20047;-68
2024/02/08 03:20:08;;;;;;;33.35;30.23;;;;;;;4.96;100.00;95658.34;5063790;28;20025;-67
2024/02/08 03:22:35;;;;;;;31.48;28.27;;;;;;;4.96;100.00;95655.75;5076891;28;20473;-68
2024/02/08 03:25:04;;;;;;;26.38;23.77;;;;;;;4.99;100.00;95653.75;5069244;28;20486;-67
2024/02/08 03:27:33;;;;;;;33.63;30.17;;;;;;;4.97;100.00;95650.44;5073820;28;20034;-68
2024/02/08 03:30:04;;;;;;;30.55;27.63;;;;;;;4.96;100.00;95648.75;5065545;28;20032;-67
2024/02/08 03:32:34;;;;;;;29.98;26.92;;;;;;;5.01;100.00;95648.44;5077983;28;20103;-67
2024/02/08 03:34:59;;;;;;;29.60;26.90;;;;;;;5.05;100.00;95649.91;5063729;28;20031;-68
2024/02/08 03:37:25;;;;;;;28.73;25.67;;;;;;;5.07;100.00;95645.41;5078058;28;20036;-68
2024/02/08 03:39:50;;;;;;;27.42;24.77;;;;;;;5.11;100.00;95636.41;5064356;28;20036;-68
2024/02/08 03:42:16;;;;;;;28.38;25.58;;;;;;;5.12;100.00;95648.50;5076241;28;20083;-67
2024/02/08 03:44:45;;;;;;;30.00;25.50;;;;;;;5.16;100.00;95649.94;5075446;28;20028;-68
2024/02/08 03:47:12;;;;;;;28.08;25.17;;;;;;;5.14;100.00;95646.63;5058179;28;20504;-68
2024/02/08 03:49:38;;;;;;;25.73;21.38;;;;;;;5.12;100.00;95642.47;5061786;28;20047;-68
2024/02/08 03:52:08;;;;;;;28.83;26.23;;;;;;;5.14;100.00;95645.78;5063535;28;20094;-67
2024/02/08 03:54:36;;;;;;;29.30;26.35;;;;;;;5.14;100.00;95651.84;5063012;28;20028;-68
2024/02/08 03:57:07;;;;;;;29.00;26.00;;;;;;;5.18;100.00;95644.63;5066901;28;20032;-68
2024/02/08 03:59:33;;;;;;;29.58;26.92;;;;;;;5.24;100.00;95638.16;5063935;28;20028;-68
2024/02/08 04:02:03;;;;;;;27.30;24.73;;;;;;;5.13;100.00;95644.94;5062040;28;20482;-68
2024/02/08 04:04:59;;;;;;;28.15;25.55;;;;;;;5.11;100.00;95635.59;5073152;28;20024;-68
2024/02/08 04:10:18;;;;;;;24.38;20.10;;;;;;;5.05;100.00;95617.72;5057059;28;20467;-68
2024/02/08 04:54:09;;;;;;;25.90;23.20;;;;;;;5.05;100.00;95578.59;5070954;28;20039;-67
2024/02/08 04:56:34;;;;;;;29.42;26.63;;;;;;;5.05;100.00;95576.81;5075272;28;20493;-67
2024/02/08 04:59:00;;;;;;;29.08;26.42;;;;;;;5.05;100.00;95579.44;5063003;28;20021;-68
2024/02/08 05:01:28;;;;;;;23.90;21.20;;;;;;;5.01;100.00;95572.78;5056431;28;20024;-67
2024/02/08 05:03:53;;;;;;;29.42;26.38;;;;;;;5.00;100.00;95577.16;5056907;28;20084;-67
2024/02/08 05:06:19;;;;;;;29.20;26.45;;;;;;;5.02;100.00;95569.22;5074132;28;20489;-67
2024/02/08 05:08:47;;;;;;;28.45;25.75;;;;;;;5.07;100.00;95574.94;5068381;28;20025;-68
2024/02/08 05:11:14;;;;;;;28.10;25.50;;;;;;;5.10;100.00;95566.88;5056170;28;20028;-68
2024/02/08 05:13:50;;;;;;;30.20;27.40;;;;;;;5.17;100.00;95564.66;5074751;28;20044;-68
2024/02/08 05:16:16;;;;;;;30.77;27.08;;;;;;;5.20;100.00;95581.88;5056653;28;20025;-68
2024/02/08 05:18:43;;;;;;;28.08;23.52;;;;;;;5.06;100.00;95582.88;5070939;28;20027;-68
2024/02/08 05:21:13;;;;;;;25.58;22.88;;;;;;;4.99;100.00;95579.88;5065935;28;20437;-68
2024/02/08 05:23:40;;;;;;;32.28;29.17;;;;;;;4.95;100.00;95581.03;5069514;28;20030;-68
2024/02/08 05:26:10;;;;;;;32.35;28.88;;;;;;;5.01;100.00;95583.22;5065267;28;20020;-68
2024/02/08 05:28:37;;;;;;;33.33;29.83;;;;;;;5.11;100.00;95580.78;5064045;28;20112;-68
2024/02/08 05:31:03;;;;;;;32.58;29.48;;;;;;;5.03;100.00;95586.53;5065825;28;20099;-68
2024/02/08 05:33:29;;;;;;;62.50;56.25;;;;;;;5.01;100.00;95586.63;5059135;28;20102;-68
2024/02/08 05:35:57;;;;;;;72.13;65.57;;;;;;;4.98;100.00;95578.22;5055571;28;20076;-68
2024/02/08 05:38:26;;;;;;;51.10;46.08;;;;;;;4.92;100.00;95578.63;5064585;28;20024;-68
2024/02/08 05:40:52;;;;;;;36.60;33.08;;;;;;;4.90;100.00;95581.38;5063698;28;20119;-68
2024/02/08 05:43:27;;;;;;;43.90;39.85;;;;;;;4.84;100.00;95582.63;5069745;28;20084;-68
2024/02/08 05:45:53;;;;;;;33.80;27.80;;;;;;;4.81;100.00;95579.41;5065461;28;20036;-68
2024/02/08 05:48:19;;;;;;;29.55;26.55;;;;;;;4.80;100.00;95575.13;5070893;28;20719;-68
2024/02/08 05:50:44;;;;;;;37.80;34.30;;;;;;;4.85;100.00;95578.25;5055641;28;20107;-68
2024/02/08 05:53:15;;;;;;;46.08;41.55;;;;;;;4.91;100.00;95584.81;5070862;28;20371;-68
2024/02/08 05:55:47;;;;;;;42.67;38.58;;;;;;;4.93;100.00;95590.75;5056997;28;20528;-68
2024/02/08 05:58:18;;;;;;;37.08;33.47;;;;;;;4.94;100.00;95593.25;5073251;28;20048;-68
2024/02/08 06:00:52;;;;;;;34.88;31.80;;;;;;;4.96;100.00;95580.09;5074862;28;20477;-68
2024/02/08 06:03:33;;;;;;;32.15;29.17;;;;;;;4.96;100.00;95580.09;5074044;28;20488;-68
2024/02/08 06:06:16;;;;;;;33.47;30.27;;;;;;;4.98;100.00;95578.22;5058216;28;20037;-68
2024/02/08 06:08:42;;;;;;;32.25;29.08;;;;;;;4.99;100.00;95578.09;5066443;28;20025;-68
2024/02/08 06:11:16;;;;;;;32.67;29.77;;;;;;;5.00;100.00;95573.72;5062301;28;20063;-68
2024/02/08 06:13:50;;;;;;;27.98;24.55;;;;;;;4.98;100.00;95568.59;5058733;28;20038;-68
2024/02/08 06:16:26;;;;;;;40.97;36.70;;;;;;;4.99;100.00;95575.47;5058516;28;20028;-68
2024/02/08 06:18:59;;;;;;;44.42;40.35;;;;;;;4.97;100.00;95573.91;5065152;28;20032;-68
2024/02/08 06:21:38;;;;;;;53.20;48.28;;;;;;;5.01;100.00;95570.16;5068300;28;20032;-68
2024/02/08 06:27:13;;;;;;;37.72;34.17;;;;;;;5.02;100.00;95558.78;5060563;28;20082;-68
2024/02/08 06:29:43;;;;;;;40.40;36.58;;;;;;;4.98;100.00;95549.53;5055290;28;20096;-68
2024/02/08 06:35:09;;;;;;;32.75;27.05;;;;;;;4.95;100.00;95557.53;5066013;28;20067;-68
2024/02/08 06:37:44;;;;;;;39.33;35.33;;;;;;;4.93;100.00;95549.00;5069748;28;20040;-68
2024/02/08 06:40:36;;;;;;;31.75;27.23;;;;;;;4.95;100.00;95541.88;5063401;28;20020;-68
2024/02/08 07:37:36;;;;;;;33.20;29.95;;;;;;;4.96;100.00;95540.94;5060647;28;20023;-69
2024/02/08 07:40:23;;;;;;;35.83;32.53;;;;;;;5.04;100.00;95533.41;5071491;28;20028;-68
2024/02/08 07:45:47;;;;;;;33.38;30.08;;;;;;;5.16;100.00;95522.06;5056337;28;20549;-69
2024/02/08 07:48:14;;;;;;;32.58;29.73;;;;;;;5.25;100.00;95527.56;5063760;28;20036;-68
2024/02/08 07:50:47;;;;;;;34.08;28.00;;;;;;;5.20;100.00;95525.28;5064073;28;20020;-69
2024/02/08 07:53:35;;;;;;;38.10;34.35;;;;;;;5.18;100.00;95526.34;5066866;28;20037;-68
2024/02/08 07:59:03;;;;;;;27.65;21.90;;;;;;;5.23;100.00;95532.06;5059712;28;20040;-69
2024/02/08 08:01:32;;;;;;;28.98;25.88;;;;;;;5.23;100.00;95532.06;5062527;28;20020;-69
2024/02/08 08:04:00;;;;;;;34.65;31.25;;;;;;;5.24;100.00;95537.16;5077426;28;20024;-69
2024/02/08 08:06:34;;;;;;;35.53;32.25;;;;;;;5.24;100.00;95529.34;5063779;28;20021;-69
2024/02/08 08:09:18;;;;;;;29.17;26.42;;;;;;;5.29;100.00;95534.22;5057942;28;20025;-69
2024/02/08 08:11:55;;;;;;;32.47;29.17;;;;;;;5.32;100.00;95539.22;5063460;28;20056;-68
2024/02/08 08:17:31;;;;;;;38.58;34.75;;;;;;;5.85;100.00;95553.59;5068563;28;20168;-69
2024/02/08 08:20:04;;;;;;;36.30;32.65;;;;;;;5.71;100.00;95558.09;5068678;28;20447;-69
2024/02/08 08:25:10;;;;;;;31.55;28.58;;;;;;;5.86;100.00;95568.34;5074042;28;20032;-69
2024/02/08 08:27:52;;;;;;;34.13;30.92;;;;;;;5.99;100.00;95582.13;5069041;28;20025;-68
2024/02/08 08:30:27;;;;;;;36.47;32.90;;;;;;;6.09;100.00;95576.25;5066649;28;20479;-69
2024/02/08 08:35:45;;;;;;;20.00;17.92;;;;;;;6.33;100.00;95589.19;5070482;28;20070;-68
2024/02/08 08:40:48;;;;;;;23.33;20.70;;;;;;;6.22;100.00;95605.72;5069957;28;20029;-68
2024/02/08 08:43:22;;;;;;;26.33;23.95;;;;;;;6.23;100.00;95599.53;5068419;28;20056;-69
2024/02/08 08:45:51;;;;;;;22.85;20.85;;;;;;;6.24;100.00;95603.00;5064220;28;20089;-69
2024/02/08 08:48:21;;;;;;;21.50;19.35;;;;;;;6.29;100.00;95601.66;5056291;28;20094;-69
2024/02/08 08:50:56;;;;;;;21.20;19.40;;;;;;;6.32;100.00;95599.78;5056320;28;20462;-69
2024/02/08 08:53:28;;;;;;;15.60;14.07;;;;;;;6.34;100.00;95596.09;5062133;28;20441;-69
2024/02/08 08:55:57;;;;;;;21.15;19.30;;;;;;;6.41;100.00;95606.91;5068453;28;20094;-69
2024/02/08 08:58:27;;;;;;;21.27;19.27;;;;;;;6.43;100.00;95605.03;5069825;28;20017;-69
2024/02/08 09:01:11;;;;;;;22.38;20.27;;;;;;;6.42;100.00;95598.13;5055910;28;20075;-69
2024/02/08 09:03:39;;;;;;;24.48;21.92;;;;;;;6.37;100.00;95598.47;5059887;28;20025;-69
2024/02/08 09:06:11;;;;;;;20.35;18.45;;;;;;;6.36;100.00;95590.75;5067277;28;20048;-69
2024/02/08 09:08:54;;;;;;;20.63;18.70;;;;;;;6.43;100.00;95586.72;5069639;28;20029;-69
2024/02/08 09:11:24;;;;;;;18.75;17.15;;;;;;;6.49;100.00;95574.94;5073635;28;20044;-69
2024/02/08 09:13:51;;;;;;;20.00;18.30;;;;;;;6.53;100.00;95571.13;5065650;28;20546;-69
2024/02/08 09:21:26;;;;;;;;;;;;;;;6.75;100.00;95565.06;5065093;28;20103;-69
2024/02/08 09:23:52;;;;;;;14.32;12.98;;;;;;;6.85;100.00;95560.75;5066131;28;19912;-69
2024/02/08 09:26:24;;;;;;;13.48;12.07;;;;;;;7.12;100.00;95550.81;5063839;28;20017;-69
2024/02/08 09:28:52;;;;;;;19.13;16.10;;;;;;;7.12;100.00;95546.41;5056723;28;20040;-69
2024/02/08 09:31:18;;;;;;;20.98;18.90;;;;;;;7.05;100.00;95540.00;5066745;28;20027;-69
2024/02/08 09:33:48;;;;;;;22.63;20.52;;;;;;;7.13;100.00;95534.97;5056689;28;20025;-69
2024/02/08 09:36:17;;;;;;;19.17;17.45;;;;;;;7.29;100.00;95525.88;5055956;28;20021;-69
2024/02/08 09:38:43;;;;;;;14.00;12.57;;;;;;;7.31;100.00;95522.19;5070408;28;20070;-68
2024/02/08 09:41:17;;;;;;;16.65;12.80;;;;;;;7.43;100.00;95522.97;5055315;28;20020;-69
2024/02/08 09:43:44;;;;;;;12.07;10.73;;;;;;;7.55;100.00;95512.41;5065578;28;20505;-69
2024/02/08 09:46:28;;;;;;;11.88;10.57;;;;;;;7.72;100.00;95514.44;5059217;28;20044;-69
2024/02/08 09:48:59;;;;;;;9.98;9.00;;;;;;;8.02;100.00;95496.28;5056087;28;20017;-69
2024/02/08 09:51:24;;;;;;;10.38;7.95;;;;;;;8.13;100.00;95492.72;5057627;28;20024;-69
2024/02/08 09:54:00;;;;;;;7.68;6.50;;;;;;;8.24;100.00;95474.25;5067133;28;20599;-69
2024/02/08 09:56:37;;;;;;;6.70;6.05;;;;;;;8.34;100.00;95463.00;5068279;28;20074;-69
2024/02/08 09:59:07;;;;;;;6.40;5.75;;;;;;;8.40;100.00;95455.41;5067202;28;20024;-69
2024/02/08 10:01:43;;;;;;;7.72;6.03;;;;;;;8.48;100.00;95454.72;5068307;28;20029;-69
2024/02/08 10:04:16;;;;;;;9.15;7.03;;;;;;;8.56;100.00;95451.47;5055080;28;20028;-69
2024/02/08 10:09:36;;;;;;;8.85;8.00;;;;;;;8.92;100.00;95445.69;5059437;28;20025;-70
2024/02/08 10:12:11;;;;;;;10.32;9.25;;;;;;;8.78;100.00;95442.53;5064700;28;20477;-69
2024/02/08 10:14:46;;;;;;;7.68;6.18;;;;;;;8.87;100.00;95454.00;5056514;28;20021;-69
2024/02/08 10:17:24;;;;;;;8.23;6.65;;;;;;;9.01;100.00;95445.69;5056112;28;20033;-70
2024/02/08 10:22:56;;;;;;;12.23;11.13;;;;;;;9.36;100.00;95440.03;5073264;28;20474;-69
2024/02/08 10:28:18;;;;;;;9.25;8.35;;;;;;;9.61;100.00;95425.44;5059349;28;20066;-69
2024/02/08 10:30:46;;;;;;;9.10;8.23;;;;;;;9.63;100.00;95428.78;5071204;28;20520;-69
2024/02/08 10:33:14;;;;;;;8.40;7.03;;;;;;;9.79;100.00;95417.66;5055871;28;20048;-69
2024/02/08 10:35:43;;;;;;;8.38;7.57;;;;;;;9.98;100.00;95410.66;5054663;28;20016;-69
2024/02/08 10:38:29;;;;;;;10.50;7.18;;;;;;;10.21;100.00;95411.09;5066933;28;20020;-69
2024/02/08 10:40:58;;;;;;;7.65;6.85;;;;;;;10.35;100.00;95398.41;5056979;28;20021;-69
2024/02/08 10:43:33;;;;;;;7.32;6.57;;;;;;;10.44;100.00;95384.41;5057369;28;20465;-69
2024/02/08 10:46:04;;;;;;;5.68;5.03;;;;;;;10.44;100.00;95363.34;5062464;28;20099;-69
2024/02/08 10:48:29;;;;;;;4.93;4.35;;;;;;;10.46;100.00;95356.13;5058740;28;20025;-69
2024/02/08 10:51:11;;;;;;;5.13;4.28;;;;;;;10.35;100.00;95345.78;5066698;28;20403;-69
2024/02/08 10:53:43;;;;;;;4.35;4.03;;;;;;;10.28;100.00;95330.63;5059826;28;20021;-69
2024/02/08 10:56:14;;;;;;;4.43;4.03;;;;;;;10.15;100.00;95317.78;5070332;28;20021;-69
2024/02/08 11:01:37;;;;;;;9.85;4.68;;;;;;;10.36;100.00;95313.25;5050633;28;20036;-69
2024/02/08 11:04:28;;;;;;;5.38;4.28;;;;;;;10.42;100.00;95304.78;5064040;28;20062;-70
2024/02/08 11:07:22;;;;;;;3.80;3.30;;;;;;;10.59;100.00;95295.19;5066179;28;20098;-69
2024/02/08 11:09:45;;;;;;;5.80;3.42;;;;;;;10.88;100.00;95287.03;5060768;28;20041;-70
2024/02/08 11:12:21;;;;;;;3.97;3.13;;;;;;;11.10;100.00;95292.78;5072829;28;20028;-70
2024/02/08 11:15:13;;;;;;;6.70;3.10;;;;;;;10.92;100.00;95277.03;5068252;28;20017;-69
2024/02/08 11:17:49;;;;;;;3.47;3.15;;;;;;;10.83;100.00;95275.31;5067720;28;20087;-69
2024/02/08 11:20:23;;;;;;;3.72;3.05;;;;;;;10.74;100.00;95270.00;5056684;28;20021;-69
2024/02/08 11:22:57;;;;;;;3.53;2.47;;;;;;;10.73;100.00;95264.91;5062548;28;20078;-69
2024/02/08 11:25:33;;;;;;;5.78;2.85;;;;;;;10.88;100.00;95263.34;5055272;28;20048;-69
2024/02/08 11:28:15;;;;;;;4.25;2.67;;;;;;;11.06;100.00;95262.47;5062997;28;20040;-69
2024/02/08 11:30:41;;;;;;;2.63;2.00;;;;;;;11.30;100.00;95261.78;5066778;28;20035;-69
2024/02/08 11:33:14;;;;;;;2.78;2.20;;;;;;;11.32;100.00;95257.19;5072475;28;20533;-69
2024/02/08 11:36:16;;;;;;;5.93;2.60;;;;;;;11.39;100.00;95238.94;5066337;28;20032;-69
2024/02/08 11:38:34;;;;;;;4.07;2.28;;;;;;;11.32;100.00;95236.09;5072217;28;20037;-69
2024/02/08 11:41:14;;;;;;;3.10;2.75;;;;;;;11.14;100.00;95215.09;5076134;28;20048;-69
2024/02/08 11:43:47;;;;;;;4.95;2.80;;;;;;;11.12;100.00;95203.88;5057231;28;20057;-69
2024/02/08 11:46:20;;;;;;;4.25;2.90;;;;;;;11.40;100.00;95206.31;5059406;28;20039;-69
2024/02/08 11:48:46;;;;;;;3.63;2.78;;;;;;;11.55;100.00;95184.59;5065805;28;20561;-69
2024/02/08 11:51:13;;;;;;;3.22;2.92;;;;;;;11.36;100.00;95194.44;5062249;28;20082;-70
2024/02/08 11:53:41;;;;;;;3.80;2.67;;;;;;;11.75;100.00;95188.63;5062451;28;20111;-70
2024/02/08 11:56:11;;;;;;;3.15;2.60;;;;;;;12.05;100.00;95167.09;5057706;28;20109;-69
2024/02/08 11:58:44;;;;;;;2.60;2.40;;;;;;;12.43;100.00;95150.75;5066551;28;20024;-69
2024/02/08 12:01:13;;;;;;;4.32;2.55;;;;;;;12.52;100.00;95149.78;5060637;28;20024;-69
2024/02/08 12:03:42;;;;;;;4.47;2.65;;;;;;;12.69;100.00;95139.16;5071639;28;20025;-69
2024/02/08 12:06:22;;;;;;;3.10;1.85;;;;;;;12.74;100.00;95123.66;5057418;28;20488;-69
2024/02/08 12:08:57;;;;;;;4.22;2.83;;;;;;;12.93;100.00;95122.44;5058435;28;20043;-70
2024/02/08 12:11:24;;;;;;;4.40;2.80;;;;;;;13.12;100.00;95121.19;5057147;28;20075;-70
2024/02/08 12:13:53;;;;;;;2.83;2.63;;;;;;;13.35;100.00;95114.31;5068585;28;20028;-69
2024/02/08 12:16:18;;;;;;;4.43;3.10;;;;;;;13.43;100.00;95123.06;5067105;28;20116;-70
2024/02/08 12:18:43;;;;;;;3.10;2.80;;;;;;;13.33;100.00;95112.69;5069965;28;20048;-69
2024/02/08 12:21:17;;;;;;;3.80;2.83;;;;;;;13.46;100.00;95098.91;5070995;28;20016;-70
2024/02/08 12:23:43;;;;;;;7.18;4.03;;;;;;;13.48;100.00;95093.44;5076500;28;20095;-70
2024/02/08 12:26:12;;;;;;;3.45;2.78;;;;;;;13.69;100.00;95074.31;5074665;28;20066;-70
2024/02/08 12:28:41;;;;;;;3.40;3.08;;;;;;;13.48;100.00;95068.84;5056896;28;20025;-70
2024/02/08 12:31:16;;;;;;;6.32;5.72;;;;;;;13.28;100.00;95058.69;5072537;28;20028;-70
2024/02/08 12:33:45;;;;;;;4.25;2.75;;;;;;;13.35;100.00;95056.97;5072656;28;20028;-70
2024/02/08 12:36:16;;;;;;;3.53;3.10;;;;;;;13.55;100.00;95045.97;5076194;28;20067;-70
2024/02/08 12:38:42;;;;;;;3.00;2.60;;;;;;;13.57;100.00;95033.38;5056653;28;20021;-70
2024/02/08 12:41:10;;;;;;;3.60;3.00;;;;;;;13.64;100.00;95028.22;5068590;28;20465;-70
2024/02/08 12:43:37;;;;;;;2.88;2.60;;;;;;;13.65;100.00;95025.41;5076144;28;20045;-70
2024/02/08 12:46:06;;;;;;;2.80;2.30;;;;;;;13.45;100.00;95011.81;5064922;28;20163;-70
2024/02/08 12:48:33;;;;;;;3.50;2.63;;;;;;;13.25;100.00;94999.03;5062253;28;20149;-70
2024/02/08 12:51:03;;;;;;;4.15;2.83;;;;;;;13.10;100.00;94998.97;5065665;28;20167;-70
2024/02/08 12:53:30;;;;;;;4.00;2.78;;;;;;;13.26;100.00;94995.44;5056229;28;20066;-70
2024/02/08 12:56:04;;;;;;;3.28;2.97;;;;;;;13.33;100.00;94984.94;5057243;28;20474;-69
2024/02/08 12:58:29;;;;;;;3.25;3.00;;;;;;;13.54;100.00;94989.63;5073515;28;20380;-69
2024/02/08 13:01:04;;;;;;;2.75;2.55;;;;;;;13.74;100.00;94966.13;5063713;28;20025;-69
2024/02/08 13:03:39;;;;;;;4.32;3.38;;;;;;;13.65;100.00;94956.66;5057190;28;20028;-70
2024/02/08 13:06:11;;;;;;;4.10;3.70;;;;;;;13.85;100.00;94958.78;5062518;28;20040;-69
2024/02/08 13:08:37;;;;;;;6.80;4.70;;;;;;;14.04;100.00;94960.91;5060351;28;20148;-69
2024/02/08 13:11:02;;;;;;;4.72;3.42;;;;;;;13.81;100.00;94968.06;5068709;28;20055;-69
2024/02/08 13:13:29;;;;;;;4.25;3.95;;;;;;;13.85;100.00;94979.94;5056225;28;20032;-70
2024/02/08 13:16:01;;;;;;;3.55;3.05;;;;;;;13.89;100.00;94960.06;5065846;28;20017;-69
2024/02/08 13:18:30;;;;;;;5.88;3.25;;;;;;;13.88;100.00;94955.78;5060655;28;20445;-70
2024/02/08 13:20:57;;;;;;;3.30;2.97;;;;;;;13.89;100.00;94941.53;5060856;28;20091;-70
2024/02/08 13:23:23;;;;;;;13.95;6.03;;;;;;;13.97;100.00;94944.09;5061018;28;20489;-70
2024/02/08 13:25:48;;;;;;;4.10;3.70;;;;;;;14.09;100.00;94927.78;5066514;28;20119;-69
2024/02/08 13:28:14;;;;;;;3.70;3.13;;;;;;;13.94;100.00;94922.47;5063003;28;20112;-70
2024/02/08 13:30:41;;;;;;;7.15;5.57;;;;;;;14.09;100.00;94915.34;5069843;28;20024;-70
2024/02/08 13:33:10;;;;;;;5.05;4.53;;;;;;;14.53;100.00;94916.31;5061912;28;20852;-69
2024/02/08 13:35:39;;;;;;;4.25;3.85;;;;;;;14.43;100.00;94903.38;5069200;28;20024;-70
2024/02/08 13:38:06;;;;;;;8.55;5.50;;;;;;;14.43;100.00;94894.59;5075712;28;20020;-70
2024/02/08 13:40:31;;;;;;;5.70;5.00;;;;;;;14.58;100.00;94882.16;5072768;28;20044;-70
2024/02/08 13:42:58;;;;;;;7.40;5.40;;;;;;;14.63;100.00;94883.41;5056595;28;20072;-70
2024/02/08 13:45:28;;;;;;;6.93;6.25;;;;;;;14.43;100.00;94860.16;5066083;28;20044;-70
2024/02/08 13:47:56;;;;;;;7.80;5.15;;;;;;;14.51;100.00;94856.59;5055586;28;20563;-69
2024/02/08 13:50:28;;;;;;;4.60;3.83;;;;;;;14.23;100.00;94858.09;5057093;28;20028;-69
2024/02/08 13:52:53;;;;;;;10.43;6.40;;;;;;;14.00;100.00;94853.75;5057827;28;20088;-70